sensor_id;sensor_type;location;lat;lon;timestamp;temperature;humidity
18388;DHT22;9320;50.256;19.026;2023-05-24T00:00:30;16.90;99.90
18388;DHT22;9320;50.256;19.026;2023-05-24T00:02:59;16.90;99.90
18388;DHT22;9320;50.256;19.026;2023-05-24T00:05:28;16.90;99.90
18388;DHT22;9320;50.256;19.026;2023-05-24T00:07:57;16.90;99.90
18388;DHT22;9320;50.256;19.026;2023-05-24T00:10:25;16.90;99.90
18388;DHT22;9320;50.256;19.026;2023-05-24T00:12:55;16.90;99.90
18388;DHT22;9320;50.256;19.026;2023-05-24T00:15:23;16.90;99.90
18388;DHT22;9320;50.256;19.026;2023-05-24T00:17:51;16.90;99.90
18388;DHT22;9320;50.256;19.026;2023-05-24T00:20:19;16.90;99.90
18388;DHT22;9320;50.256;19.026;2023-05-24T00:22:48;16.90;99.90
18388;DHT22;9320;50.256;19.026;2023-05-24T00:25:16;16.90;99.90
18388;DHT22;9320;50.256;19.026;2023-05-24T00:27:44;16.90;99.90
18388;DHT22;9320;50.256;19.026;2023-05-24T00:30:13;16.90;99.90
18388;DHT22;9320;50.256;19.026;2023-05-24T00:32:41;16.90;99.90
18388;DHT22;9320;50.256;19.026;2023-05-24T00:35:09;16.90;99.90
18388;DHT22;9320;50.256;19.026;2023-05-24T00:37:37;16.90;99.90
18388;DHT22;9320;50.256;19.026;2023-05-24T00:40:08;16.90;99.90
18388;DHT22;9320;50.256;19.026;2023-05-24T00:42:36;16.90;99.90
18388;DHT22;9320;50.256;19.026;2023-05-24T00:45:05;16.90;99.90
18388;DHT22;9320;50.256;19.026;2023-05-24T00:47:35;16.90;99.90
18388;DHT22;9320;50.256;19.026;2023-05-24T00:50:05;16.90;99.90
18388;DHT22;9320;50.256;19.026;2023-05-24T00:52:34;16.90;99.90
18388;DHT22;9320;50.256;19.026;2023-05-24T00:55:03;16.80;99.90
18388;DHT22;9320;50.256;19.026;2023-05-24T00:57:31;16.80;99.90
18388;DHT22;9320;50.256;19.026;2023-05-24T00:59:59;16.80;99.90
18388;DHT22;9320;50.256;19.026;2023-05-24T01:02:28;16.80;99.90
18388;DHT22;9320;50.256;19.026;2023-05-24T01:04:58;16.80;99.90
18388;DHT22;9320;50.256;19.026;2023-05-24T01:07:33;16.80;99.90
18388;DHT22;9320;50.256;19.026;2023-05-24T01:10:11;16.80;99.90
18388;DHT22;9320;50.256;19.026;2023-05-24T01:12:49;16.80;99.90
18388;DHT22;9320;50.256;19.026;2023-05-24T01:15:24;16.70;99.90
18388;DHT22;9320;50.256;19.026;2023-05-24T01:18:01;16.70;99.90
18388;DHT22;9320;50.256;19.026;2023-05-24T01:20:33;16.60;99.90
18388;DHT22;9320;50.256;19.026;2023-05-24T01:23:12;16.60;99.90
18388;DHT22;9320;50.256;19.026;2023-05-24T01:25:48;16.60;99.90
18388;DHT22;9320;50.256;19.026;2023-05-24T01:28:20;16.50;99.90
18388;DHT22;9320;50.256;19.026;2023-05-24T01:30:48;16.50;99.90
18388;DHT22;9320;50.256;19.026;2023-05-24T01:33:16;16.50;99.90
18388;DHT22;9320;50.256;19.026;2023-05-24T01:35:44;16.30;99.90
18388;DHT22;9320;50.256;19.026;2023-05-24T01:38:12;16.40;99.90
18388;DHT22;9320;50.256;19.026;2023-05-24T01:40:42;16.40;99.90
18388;DHT22;9320;50.256;19.026;2023-05-24T01:43:14;16.40;99.90
18388;DHT22;9320;50.256;19.026;2023-05-24T01:45:52;16.50;99.90
18388;DHT22;9320;50.256;19.026;2023-05-24T01:48:30;16.50;99.90
18388;DHT22;9320;50.256;19.026;2023-05-24T01:50:59;16.40;99.90
18388;DHT22;9320;50.256;19.026;2023-05-24T01:53:32;16.40;99.90
18388;DHT22;9320;50.256;19.026;2023-05-24T01:56:01;16.50;99.90
18388;DHT22;9320;50.256;19.026;2023-05-24T01:58:31;16.50;99.90
18388;DHT22;9320;50.256;19.026;2023-05-24T02:01:01;16.50;99.90
18388;DHT22;9320;50.256;19.026;2023-05-24T02:03:30;16.50;99.90
18388;DHT22;9320;50.256;19.026;2023-05-24T02:05:58;16.40;99.90
18388;DHT22;9320;50.256;19.026;2023-05-24T02:08:26;16.40;99.90
18388;DHT22;9320;50.256;19.026;2023-05-24T02:10:54;16.40;99.90
18388;DHT22;9320;50.256;19.026;2023-05-24T02:13:22;16.30;99.90
18388;DHT22;9320;50.256;19.026;2023-05-24T02:15:50;16.30;99.90
18388;DHT22;9320;50.256;19.026;2023-05-24T02:18:20;16.30;99.90
18388;DHT22;9320;50.256;19.026;2023-05-24T02:20:48;16.20;99.90
18388;DHT22;9320;50.256;19.026;2023-05-24T02:23:17;16.30;99.90
18388;DHT22;9320;50.256;19.026;2023-05-24T02:25:45;16.20;99.90
18388;DHT22;9320;50.256;19.026;2023-05-24T02:28:13;16.30;99.90
18388;DHT22;9320;50.256;19.026;2023-05-24T02:30:41;16.20;99.90
18388;DHT22;9320;50.256;19.026;2023-05-24T02:33:10;16.20;99.90
18388;DHT22;9320;50.256;19.026;2023-05-24T02:35:40;16.20;99.90
18388;DHT22;9320;50.256;19.026;2023-05-24T02:38:08;16.10;99.90
18388;DHT22;9320;50.256;19.026;2023-05-24T02:40:36;16.10;99.90
18388;DHT22;9320;50.256;19.026;2023-05-24T02:43:04;16.10;99.90
18388;DHT22;9320;50.256;19.026;2023-05-24T02:45:32;16.10;99.90
18388;DHT22;9320;50.256;19.026;2023-05-24T02:48:00;16.10;99.90
18388;DHT22;9320;50.256;19.026;2023-05-24T02:50:28;16.10;99.90
18388;DHT22;9320;50.256;19.026;2023-05-24T02:52:57;16.10;99.90
18388;DHT22;9320;50.256;19.026;2023-05-24T02:55:25;16.10;99.90
18388;DHT22;9320;50.256;19.026;2023-05-24T02:57:54;16.10;99.90
18388;DHT22;9320;50.256;19.026;2023-05-24T03:00:23;16.10;99.90
18388;DHT22;9320;50.256;19.026;2023-05-24T03:02:51;16.10;99.90
18388;DHT22;9320;50.256;19.026;2023-05-24T03:05:19;16.10;99.90
18388;DHT22;9320;50.256;19.026;2023-05-24T03:07:47;16.10;99.90
18388;DHT22;9320;50.256;19.026;2023-05-24T03:10:16;16.10;99.90
18388;DHT22;9320;50.256;19.026;2023-05-24T03:12:44;16.10;99.90
18388;DHT22;9320;50.256;19.026;2023-05-24T03:15:12;16.00;99.90
18388;DHT22;9320;50.256;19.026;2023-05-24T03:17:41;16.10;99.90
18388;DHT22;9320;50.256;19.026;2023-05-24T03:20:09;16.00;99.90
18388;DHT22;9320;50.256;19.026;2023-05-24T03:22:38;16.10;99.90
18388;DHT22;9320;50.256;19.026;2023-05-24T03:25:06;16.10;99.90
18388;DHT22;9320;50.256;19.026;2023-05-24T03:27:36;16.10;99.90
18388;DHT22;9320;50.256;19.026;2023-05-24T03:30:05;16.10;99.90
18388;DHT22;9320;50.256;19.026;2023-05-24T03:32:34;16.10;99.90
18388;DHT22;9320;50.256;19.026;2023-05-24T03:35:02;16.10;99.90
18388;DHT22;9320;50.256;19.026;2023-05-24T03:37:30;16.10;99.90
18388;DHT22;9320;50.256;19.026;2023-05-24T03:39:58;16.10;99.90
18388;DHT22;9320;50.256;19.026;2023-05-24T03:42:26;16.10;99.90
18388;DHT22;9320;50.256;19.026;2023-05-24T03:44:56;16.20;99.90
18388;DHT22;9320;50.256;19.026;2023-05-24T03:47:23;16.10;99.90
18388;DHT22;9320;50.256;19.026;2023-05-24T03:49:52;16.10;99.90
18388;DHT22;9320;50.256;19.026;2023-05-24T03:52:20;16.10;99.90
18388;DHT22;9320;50.256;19.026;2023-05-24T03:54:47;16.10;99.90
18388;DHT22;9320;50.256;19.026;2023-05-24T03:57:16;16.10;99.90
18388;DHT22;9320;50.256;19.026;2023-05-24T03:59:44;16.10;99.90
18388;DHT22;9320;50.256;19.026;2023-05-24T04:02:13;16.10;99.90
18388;DHT22;9320;50.256;19.026;2023-05-24T04:04:41;16.10;99.90
18388;DHT22;9320;50.256;19.026;2023-05-24T04:07:09;16.10;99.90
18388;DHT22;9320;50.256;19.026;2023-05-24T04:09:39;16.10;99.90
18388;DHT22;9320;50.256;19.026;2023-05-24T04:12:07;16.00;99.90
18388;DHT22;9320;50.256;19.026;2023-05-24T04:14:35;16.10;99.90
18388;DHT22;9320;50.256;19.026;2023-05-24T04:17:04;16.00;99.90
18388;DHT22;9320;50.256;19.026;2023-05-24T04:19:35;16.00;99.90
18388;DHT22;9320;50.256;19.026;2023-05-24T04:22:03;16.00;99.90
18388;DHT22;9320;50.256;19.026;2023-05-24T04:24:31;16.00;99.90
18388;DHT22;9320;50.256;19.026;2023-05-24T04:26:59;16.00;99.90
18388;DHT22;9320;50.256;19.026;2023-05-24T04:29:27;16.00;99.90
18388;DHT22;9320;50.256;19.026;2023-05-24T04:31:59;15.90;99.90
18388;DHT22;9320;50.256;19.026;2023-05-24T04:34:27;15.90;99.90
18388;DHT22;9320;50.256;19.026;2023-05-24T04:37:01;15.80;99.90
18388;DHT22;9320;50.256;19.026;2023-05-24T04:39:29;15.70;99.90
18388;DHT22;9320;50.256;19.026;2023-05-24T04:41:57;15.60;99.90
18388;DHT22;9320;50.256;19.026;2023-05-24T04:44:26;15.60;99.90
18388;DHT22;9320;50.256;19.026;2023-05-24T04:46:54;15.50;99.90
18388;DHT22;9320;50.256;19.026;2023-05-24T04:49:23;15.40;99.90
18388;DHT22;9320;50.256;19.026;2023-05-24T04:51:51;15.40;99.90
18388;DHT22;9320;50.256;19.026;2023-05-24T04:54:22;15.40;99.90
18388;DHT22;9320;50.256;19.026;2023-05-24T04:56:50;15.30;99.90
18388;DHT22;9320;50.256;19.026;2023-05-24T04:59:18;15.30;99.90
18388;DHT22;9320;50.256;19.026;2023-05-24T05:01:46;15.20;99.90
18388;DHT22;9320;50.256;19.026;2023-05-24T05:04:15;15.20;99.90
18388;DHT22;9320;50.256;19.026;2023-05-24T05:06:43;15.20;99.90
18388;DHT22;9320;50.256;19.026;2023-05-24T05:09:12;15.20;99.90
18388;DHT22;9320;50.256;19.026;2023-05-24T05:11:43;15.00;99.90
18388;DHT22;9320;50.256;19.026;2023-05-24T05:14:11;15.00;99.90
18388;DHT22;9320;50.256;19.026;2023-05-24T05:16:39;15.00;99.90
18388;DHT22;9320;50.256;19.026;2023-05-24T05:19:07;14.90;99.90
18388;DHT22;9320;50.256;19.026;2023-05-24T05:21:36;14.70;99.90
18388;DHT22;9320;50.256;19.026;2023-05-24T05:24:05;14.70;99.90
18388;DHT22;9320;50.256;19.026;2023-05-24T05:26:33;14.60;99.90
18388;DHT22;9320;50.256;19.026;2023-05-24T05:29:03;14.60;99.90
18388;DHT22;9320;50.256;19.026;2023-05-24T05:31:31;14.60;99.90
18388;DHT22;9320;50.256;19.026;2023-05-24T05:33:59;14.70;99.90
18388;DHT22;9320;50.256;19.026;2023-05-24T05:36:27;14.80;99.90
18388;DHT22;9320;50.256;19.026;2023-05-24T05:38:55;14.80;99.90
18388;DHT22;9320;50.256;19.026;2023-05-24T05:41:23;14.80;99.90
18388;DHT22;9320;50.256;19.026;2023-05-24T05:43:51;14.80;99.90
18388;DHT22;9320;50.256;19.026;2023-05-24T05:46:21;14.90;99.90
18388;DHT22;9320;50.256;19.026;2023-05-24T05:48:49;14.90;99.90
18388;DHT22;9320;50.256;19.026;2023-05-24T05:51:17;14.90;99.90
18388;DHT22;9320;50.256;19.026;2023-05-24T05:53:45;14.90;99.90
18388;DHT22;9320;50.256;19.026;2023-05-24T05:56:13;14.80;99.90
18388;DHT22;9320;50.256;19.026;2023-05-24T05:58:41;14.70;99.90
18388;DHT22;9320;50.256;19.026;2023-05-24T06:01:09;14.70;99.90
18388;DHT22;9320;50.256;19.026;2023-05-24T06:03:38;14.70;99.90
18388;DHT22;9320;50.256;19.026;2023-05-24T06:06:07;14.70;99.90
18388;DHT22;9320;50.256;19.026;2023-05-24T06:08:35;14.60;99.90
18388;DHT22;9320;50.256;19.026;2023-05-24T06:11:03;14.60;99.90
18388;DHT22;9320;50.256;19.026;2023-05-24T06:13:31;14.50;99.90
18388;DHT22;9320;50.256;19.026;2023-05-24T06:15:59;14.40;99.90
18388;DHT22;9320;50.256;19.026;2023-05-24T06:18:27;14.40;99.90
18388;DHT22;9320;50.256;19.026;2023-05-24T06:20:57;14.20;99.90
18388;DHT22;9320;50.256;19.026;2023-05-24T06:23:25;14.20;99.90
18388;DHT22;9320;50.256;19.026;2023-05-24T06:25:53;14.40;99.90
18388;DHT22;9320;50.256;19.026;2023-05-24T06:28:21;14.20;99.90
18388;DHT22;9320;50.256;19.026;2023-05-24T06:30:49;14.30;99.90
18388;DHT22;9320;50.256;19.026;2023-05-24T06:33:17;14.30;99.90
18388;DHT22;9320;50.256;19.026;2023-05-24T06:35:46;14.40;99.90
18388;DHT22;9320;50.256;19.026;2023-05-24T06:38:16;14.40;99.90
18388;DHT22;9320;50.256;19.026;2023-05-24T06:40:44;14.40;99.90
18388;DHT22;9320;50.256;19.026;2023-05-24T06:43:13;14.40;99.90
18388;DHT22;9320;50.256;19.026;2023-05-24T06:45:42;14.40;99.90
18388;DHT22;9320;50.256;19.026;2023-05-24T06:48:10;14.40;99.90
18388;DHT22;9320;50.256;19.026;2023-05-24T06:50:38;14.40;99.90
18388;DHT22;9320;50.256;19.026;2023-05-24T06:53:08;14.30;99.90
18388;DHT22;9320;50.256;19.026;2023-05-24T06:55:38;14.30;99.90
18388;DHT22;9320;50.256;19.026;2023-05-24T06:58:06;14.30;99.90
18388;DHT22;9320;50.256;19.026;2023-05-24T07:00:39;14.30;99.90
18388;DHT22;9320;50.256;19.026;2023-05-24T07:03:08;14.40;99.90
18388;DHT22;9320;50.256;19.026;2023-05-24T07:05:37;14.40;99.90
18388;DHT22;9320;50.256;19.026;2023-05-24T07:08:05;14.40;99.90
18388;DHT22;9320;50.256;19.026;2023-05-24T07:10:33;14.30;99.90
18388;DHT22;9320;50.256;19.026;2023-05-24T07:13:03;14.30;99.90
18388;DHT22;9320;50.256;19.026;2023-05-24T07:15:31;14.20;99.90
18388;DHT22;9320;50.256;19.026;2023-05-24T07:17:59;14.20;99.90
18388;DHT22;9320;50.256;19.026;2023-05-24T07:20:27;14.20;99.90
18388;DHT22;9320;50.256;19.026;2023-05-24T07:22:55;14.20;99.90
18388;DHT22;9320;50.256;19.026;2023-05-24T07:25:23;14.20;99.90
18388;DHT22;9320;50.256;19.026;2023-05-24T07:27:51;14.30;99.90
18388;DHT22;9320;50.256;19.026;2023-05-24T07:30:21;14.40;99.90
18388;DHT22;9320;50.256;19.026;2023-05-24T07:32:58;14.30;99.90
18388;DHT22;9320;50.256;19.026;2023-05-24T07:35:27;14.10;99.90
18388;DHT22;9320;50.256;19.026;2023-05-24T07:37:56;14.00;99.90
18388;DHT22;9320;50.256;19.026;2023-05-24T07:40:24;14.10;99.90
18388;DHT22;9320;50.256;19.026;2023-05-24T07:42:52;14.10;99.90
18388;DHT22;9320;50.256;19.026;2023-05-24T07:45:22;14.20;99.90
18388;DHT22;9320;50.256;19.026;2023-05-24T07:47:50;14.40;99.90
18388;DHT22;9320;50.256;19.026;2023-05-24T07:50:22;14.60;99.90
18388;DHT22;9320;50.256;19.026;2023-05-24T07:52:50;14.80;99.90
18388;DHT22;9320;50.256;19.026;2023-05-24T07:55:18;15.00;99.90
18388;DHT22;9320;50.256;19.026;2023-05-24T07:57:46;15.00;99.90
18388;DHT22;9320;50.256;19.026;2023-05-24T08:00:15;14.90;99.90
18388;DHT22;9320;50.256;19.026;2023-05-24T08:02:45;14.90;99.90
18388;DHT22;9320;50.256;19.026;2023-05-24T08:05:14;14.90;99.90
18388;DHT22;9320;50.256;19.026;2023-05-24T08:07:42;14.90;99.90
18388;DHT22;9320;50.256;19.026;2023-05-24T08:10:11;14.90;99.90
18388;DHT22;9320;50.256;19.026;2023-05-24T08:12:39;14.80;99.90
18388;DHT22;9320;50.256;19.026;2023-05-24T08:15:08;14.80;99.90
18388;DHT22;9320;50.256;19.026;2023-05-24T08:17:37;14.80;99.90
18388;DHT22;9320;50.256;19.026;2023-05-24T08:20:08;14.90;99.90
18388;DHT22;9320;50.256;19.026;2023-05-24T08:22:39;14.90;99.90
18388;DHT22;9320;50.256;19.026;2023-05-24T08:25:08;14.90;99.90
18388;DHT22;9320;50.256;19.026;2023-05-24T08:27:36;14.90;99.90
18388;DHT22;9320;50.256;19.026;2023-05-24T08:30:06;15.00;99.90
18388;DHT22;9320;50.256;19.026;2023-05-24T08:32:34;15.00;99.90
18388;DHT22;9320;50.256;19.026;2023-05-24T08:35:02;15.10;99.90
18388;DHT22;9320;50.256;19.026;2023-05-24T08:37:48;15.10;99.90
18388;DHT22;9320;50.256;19.026;2023-05-24T08:40:16;15.30;99.90
18388;DHT22;9320;50.256;19.026;2023-05-24T08:42:45;15.10;99.90
18388;DHT22;9320;50.256;19.026;2023-05-24T08:45:14;15.10;99.90
18388;DHT22;9320;50.256;19.026;2023-05-24T08:47:42;15.10;99.90
18388;DHT22;9320;50.256;19.026;2023-05-24T08:50:11;15.00;99.90
18388;DHT22;9320;50.256;19.026;2023-05-24T08:52:39;14.90;99.90
18388;DHT22;9320;50.256;19.026;2023-05-24T08:55:10;14.90;99.90
18388;DHT22;9320;50.256;19.026;2023-05-24T08:57:39;15.00;99.90
18388;DHT22;9320;50.256;19.026;2023-05-24T09:00:09;14.90;99.90
18388;DHT22;9320;50.256;19.026;2023-05-24T09:02:40;14.80;99.90
18388;DHT22;9320;50.256;19.026;2023-05-24T09:05:10;14.70;99.90
18388;DHT22;9320;50.256;19.026;2023-05-24T09:07:42;14.60;99.90
18388;DHT22;9320;50.256;19.026;2023-05-24T09:10:11;14.60;99.90
18388;DHT22;9320;50.256;19.026;2023-05-24T09:12:44;14.50;99.90
18388;DHT22;9320;50.256;19.026;2023-05-24T09:15:12;14.60;99.90
18388;DHT22;9320;50.256;19.026;2023-05-24T09:17:40;14.70;99.90
18388;DHT22;9320;50.256;19.026;2023-05-24T09:20:09;14.50;99.90
18388;DHT22;9320;50.256;19.026;2023-05-24T09:22:40;14.40;99.90
18388;DHT22;9320;50.256;19.026;2023-05-24T09:25:11;14.50;99.90
18388;DHT22;9320;50.256;19.026;2023-05-24T09:27:39;14.50;99.90
18388;DHT22;9320;50.256;19.026;2023-05-24T09:30:08;14.40;99.90
18388;DHT22;9320;50.256;19.026;2023-05-24T09:32:38;14.40;99.90
18388;DHT22;9320;50.256;19.026;2023-05-24T09:35:07;14.50;99.90
18388;DHT22;9320;50.256;19.026;2023-05-24T09:37:36;14.70;99.90
18388;DHT22;9320;50.256;19.026;2023-05-24T09:40:12;14.70;99.90
18388;DHT22;9320;50.256;19.026;2023-05-24T09:42:44;14.80;99.90
18388;DHT22;9320;50.256;19.026;2023-05-24T09:45:12;14.90;99.90
18388;DHT22;9320;50.256;19.026;2023-05-24T09:47:41;15.00;99.90
18388;DHT22;9320;50.256;19.026;2023-05-24T09:50:12;15.10;99.90
18388;DHT22;9320;50.256;19.026;2023-05-24T09:52:41;15.10;99.90
18388;DHT22;9320;50.256;19.026;2023-05-24T09:55:15;15.20;99.90
18388;DHT22;9320;50.256;19.026;2023-05-24T09:57:44;15.10;99.90
18388;DHT22;9320;50.256;19.026;2023-05-24T10:00:14;15.30;99.90
18388;DHT22;9320;50.256;19.026;2023-05-24T10:02:44;15.50;99.90
18388;DHT22;9320;50.256;19.026;2023-05-24T10:05:20;15.50;99.90
18388;DHT22;9320;50.256;19.026;2023-05-24T10:07:48;15.60;99.90
18388;DHT22;9320;50.256;19.026;2023-05-24T10:10:18;16.00;99.90
18388;DHT22;9320;50.256;19.026;2023-05-24T10:12:46;16.10;99.90
18388;DHT22;9320;50.256;19.026;2023-05-24T10:15:15;16.30;99.90
18388;DHT22;9320;50.256;19.026;2023-05-24T10:17:44;16.50;99.90
18388;DHT22;9320;50.256;19.026;2023-05-24T10:20:12;16.60;99.90
18388;DHT22;9320;50.256;19.026;2023-05-24T10:22:43;16.80;99.90
18388;DHT22;9320;50.256;19.026;2023-05-24T10:25:14;16.90;99.90
18388;DHT22;9320;50.256;19.026;2023-05-24T10:27:47;16.60;99.90
18388;DHT22;9320;50.256;19.026;2023-05-24T10:30:23;16.30;99.90
18388;DHT22;9320;50.256;19.026;2023-05-24T10:32:54;16.40;99.90
18388;DHT22;9320;50.256;19.026;2023-05-24T10:35:23;16.40;99.90
18388;DHT22;9320;50.256;19.026;2023-05-24T10:37:53;16.30;99.90
18388;DHT22;9320;50.256;19.026;2023-05-24T10:40:22;16.40;99.90
18388;DHT22;9320;50.256;19.026;2023-05-24T10:42:53;16.50;99.90
18388;DHT22;9320;50.256;19.026;2023-05-24T10:45:32;16.50;99.90
18388;DHT22;9320;50.256;19.026;2023-05-24T10:48:07;16.50;99.90
18388;DHT22;9320;50.256;19.026;2023-05-24T10:50:37;16.50;99.90
18388;DHT22;9320;50.256;19.026;2023-05-24T10:53:11;16.40;99.90
18388;DHT22;9320;50.256;19.026;2023-05-24T10:55:53;16.40;99.90
18388;DHT22;9320;50.256;19.026;2023-05-24T10:58:27;16.50;99.90
18388;DHT22;9320;50.256;19.026;2023-05-24T11:01:12;16.30;99.90
18388;DHT22;9320;50.256;19.026;2023-05-24T11:03:41;16.40;99.90
18388;DHT22;9320;50.256;19.026;2023-05-24T11:06:09;16.30;99.90
18388;DHT22;9320;50.256;19.026;2023-05-24T11:08:40;16.40;99.90
18388;DHT22;9320;50.256;19.026;2023-05-24T11:11:11;16.50;99.90
18388;DHT22;9320;50.256;19.026;2023-05-24T11:13:46;16.40;99.90
18388;DHT22;9320;50.256;19.026;2023-05-24T11:16:32;16.40;99.90
18388;DHT22;9320;50.256;19.026;2023-05-24T11:19:10;16.40;99.90
18388;DHT22;9320;50.256;19.026;2023-05-24T11:21:39;16.30;99.90
18388;DHT22;9320;50.256;19.026;2023-05-24T11:24:09;16.30;99.90
18388;DHT22;9320;50.256;19.026;2023-05-24T11:26:38;16.30;99.90
18388;DHT22;9320;50.256;19.026;2023-05-24T11:29:08;16.20;99.90
18388;DHT22;9320;50.256;19.026;2023-05-24T11:31:36;16.50;99.90
18388;DHT22;9320;50.256;19.026;2023-05-24T11:34:10;16.50;99.90
18388;DHT22;9320;50.256;19.026;2023-05-24T11:36:38;16.50;99.90
18388;DHT22;9320;50.256;19.026;2023-05-24T11:39:07;16.60;99.90
18388;DHT22;9320;50.256;19.026;2023-05-24T11:41:37;16.80;99.90
18388;DHT22;9320;50.256;19.026;2023-05-24T11:44:08;16.90;99.90
18388;DHT22;9320;50.256;19.026;2023-05-24T11:46:37;16.90;99.90
18388;DHT22;9320;50.256;19.026;2023-05-24T11:49:06;17.00;99.90
18388;DHT22;9320;50.256;19.026;2023-05-24T11:51:34;17.00;99.90
18388;DHT22;9320;50.256;19.026;2023-05-24T11:54:03;17.00;99.90
18388;DHT22;9320;50.256;19.026;2023-05-24T11:56:31;16.80;99.90
18388;DHT22;9320;50.256;19.026;2023-05-24T11:59:09;17.00;99.90
18388;DHT22;9320;50.256;19.026;2023-05-24T12:01:41;17.00;99.90
18388;DHT22;9320;50.256;19.026;2023-05-24T12:04:10;17.00;99.90
18388;DHT22;9320;50.256;19.026;2023-05-24T12:06:39;16.90;99.90
18388;DHT22;9320;50.256;19.026;2023-05-24T12:09:09;16.80;99.90
18388;DHT22;9320;50.256;19.026;2023-05-24T12:11:40;16.90;99.90
18388;DHT22;9320;50.256;19.026;2023-05-24T12:14:13;16.90;99.90
18388;DHT22;9320;50.256;19.026;2023-05-24T12:16:42;16.90;99.90
18388;DHT22;9320;50.256;19.026;2023-05-24T12:19:16;16.90;99.90
18388;DHT22;9320;50.256;19.026;2023-05-24T12:21:58;17.20;99.90
18388;DHT22;9320;50.256;19.026;2023-05-24T12:24:28;17.10;99.90
18388;DHT22;9320;50.256;19.026;2023-05-24T12:26:59;17.20;99.90
18388;DHT22;9320;50.256;19.026;2023-05-24T12:29:33;17.20;99.90
18388;DHT22;9320;50.256;19.026;2023-05-24T12:32:03;17.30;99.90
18388;DHT22;9320;50.256;19.026;2023-05-24T12:34:31;17.20;99.90
18388;DHT22;9320;50.256;19.026;2023-05-24T12:36:59;17.10;99.90
18388;DHT22;9320;50.256;19.026;2023-05-24T12:39:29;17.00;99.90
18388;DHT22;9320;50.256;19.026;2023-05-24T12:42:00;16.90;99.90
18388;DHT22;9320;50.256;19.026;2023-05-24T12:44:30;16.90;99.90
18388;DHT22;9320;50.256;19.026;2023-05-24T12:47:01;17.00;99.90
18388;DHT22;9320;50.256;19.026;2023-05-24T12:49:30;17.20;99.90
18388;DHT22;9320;50.256;19.026;2023-05-24T12:51:58;17.40;99.90
18388;DHT22;9320;50.256;19.026;2023-05-24T12:54:28;17.40;99.90
18388;DHT22;9320;50.256;19.026;2023-05-24T12:56:56;17.50;99.90
18388;DHT22;9320;50.256;19.026;2023-05-24T12:59:28;17.40;99.90
18388;DHT22;9320;50.256;19.026;2023-05-24T13:01:56;17.40;99.90
18388;DHT22;9320;50.256;19.026;2023-05-24T13:04:26;17.30;99.90
18388;DHT22;9320;50.256;19.026;2023-05-24T13:06:56;17.10;99.90
18388;DHT22;9320;50.256;19.026;2023-05-24T13:09:24;17.00;99.90
18388;DHT22;9320;50.256;19.026;2023-05-24T13:11:52;17.00;99.90
18388;DHT22;9320;50.256;19.026;2023-05-24T13:14:21;17.10;99.90
18388;DHT22;9320;50.256;19.026;2023-05-24T13:16:49;17.10;99.90
18388;DHT22;9320;50.256;19.026;2023-05-24T13:19:17;17.20;99.90
18388;DHT22;9320;50.256;19.026;2023-05-24T13:21:46;17.00;99.90
18388;DHT22;9320;50.256;19.026;2023-05-24T13:24:14;17.00;99.90
18388;DHT22;9320;50.256;19.026;2023-05-24T13:26:43;17.00;99.90
18388;DHT22;9320;50.256;19.026;2023-05-24T13:29:11;17.00;99.90
18388;DHT22;9320;50.256;19.026;2023-05-24T13:31:42;17.10;99.90
18388;DHT22;9320;50.256;19.026;2023-05-24T13:34:11;17.10;99.90
18388;DHT22;9320;50.256;19.026;2023-05-24T13:36:39;17.50;99.70
18388;DHT22;9320;50.256;19.026;2023-05-24T13:39:09;17.60;98.70
18388;DHT22;9320;50.256;19.026;2023-05-24T13:41:40;17.60;98.20
18388;DHT22;9320;50.256;19.026;2023-05-24T13:44:09;17.50;98.50
18388;DHT22;9320;50.256;19.026;2023-05-24T13:46:37;17.40;98.40
18388;DHT22;9320;50.256;19.026;2023-05-24T13:49:06;17.40;99.00
18388;DHT22;9320;50.256;19.026;2023-05-24T13:51:35;17.40;98.70
18388;DHT22;9320;50.256;19.026;2023-05-24T13:54:04;17.20;99.00
18388;DHT22;9320;50.256;19.026;2023-05-24T13:56:35;17.00;99.30
18388;DHT22;9320;50.256;19.026;2023-05-24T13:59:05;17.10;99.80
18388;DHT22;9320;50.256;19.026;2023-05-24T14:01:34;17.10;99.90
18388;DHT22;9320;50.256;19.026;2023-05-24T14:04:04;17.20;99.90
18388;DHT22;9320;50.256;19.026;2023-05-24T14:06:33;17.10;99.90
18388;DHT22;9320;50.256;19.026;2023-05-24T14:09:03;17.10;99.90
18388;DHT22;9320;50.256;19.026;2023-05-24T14:11:32;16.80;99.90
18388;DHT22;9320;50.256;19.026;2023-05-24T14:14:02;16.90;99.90
18388;DHT22;9320;50.256;19.026;2023-05-24T14:16:33;16.80;99.90
18388;DHT22;9320;50.256;19.026;2023-05-24T14:19:01;16.60;99.90
18388;DHT22;9320;50.256;19.026;2023-05-24T14:21:29;16.50;99.90
18388;DHT22;9320;50.256;19.026;2023-05-24T14:23:58;16.60;99.90
18388;DHT22;9320;50.256;19.026;2023-05-24T14:26:26;16.60;99.90
18388;DHT22;9320;50.256;19.026;2023-05-24T14:28:54;16.50;99.90
18388;DHT22;9320;50.256;19.026;2023-05-24T14:31:24;16.50;99.90
18388;DHT22;9320;50.256;19.026;2023-05-24T14:33:52;16.40;99.90
18388;DHT22;9320;50.256;19.026;2023-05-24T14:36:20;16.50;99.90
18388;DHT22;9320;50.256;19.026;2023-05-24T14:38:48;16.20;99.90
18388;DHT22;9320;50.256;19.026;2023-05-24T14:41:16;16.10;99.90
18388;DHT22;9320;50.256;19.026;2023-05-24T14:43:44;16.00;99.90
18388;DHT22;9320;50.256;19.026;2023-05-24T14:46:12;16.10;99.90
18388;DHT22;9320;50.256;19.026;2023-05-24T14:48:42;16.10;99.90
18388;DHT22;9320;50.256;19.026;2023-05-24T14:51:10;16.10;99.90
18388;DHT22;9320;50.256;19.026;2023-05-24T14:53:38;16.10;99.90
18388;DHT22;9320;50.256;19.026;2023-05-24T14:56:06;16.10;99.90
18388;DHT22;9320;50.256;19.026;2023-05-24T14:58:35;16.10;99.90
18388;DHT22;9320;50.256;19.026;2023-05-24T15:01:04;16.00;99.90
18388;DHT22;9320;50.256;19.026;2023-05-24T15:03:32;15.90;99.90
18388;DHT22;9320;50.256;19.026;2023-05-24T15:06:04;16.00;99.90
18388;DHT22;9320;50.256;19.026;2023-05-24T15:08:32;16.00;99.90
18388;DHT22;9320;50.256;19.026;2023-05-24T15:11:00;16.00;99.90
18388;DHT22;9320;50.256;19.026;2023-05-24T15:13:28;15.90;99.90
18388;DHT22;9320;50.256;19.026;2023-05-24T15:15:56;15.80;99.90
18388;DHT22;9320;50.256;19.026;2023-05-24T15:18:26;15.80;99.90
18388;DHT22;9320;50.256;19.026;2023-05-24T15:20:54;16.00;99.90
18388;DHT22;9320;50.256;19.026;2023-05-24T15:23:24;15.90;99.90
18388;DHT22;9320;50.256;19.026;2023-05-24T15:25:52;15.80;99.90
18388;DHT22;9320;50.256;19.026;2023-05-24T15:28:20;15.80;99.90
18388;DHT22;9320;50.256;19.026;2023-05-24T15:30:52;15.90;99.90
18388;DHT22;9320;50.256;19.026;2023-05-24T15:33:20;15.80;99.90
18388;DHT22;9320;50.256;19.026;2023-05-24T15:35:48;15.80;99.90
18388;DHT22;9320;50.256;19.026;2023-05-24T15:38:16;15.70;99.90
18388;DHT22;9320;50.256;19.026;2023-05-24T15:40:46;15.60;99.90
18388;DHT22;9320;50.256;19.026;2023-05-24T15:43:16;15.70;99.90